Suffolk, Texas
Current Conditions -  °F | °C
As of 3:53 PM on Friday 28 Nov 2014 (Local Time) from KGGG Reporting Station
Clear Clear  
Wind Chill: 19°   Ceiling: Unl
Heat Index: 19°   Visibility: 10mi
Dew Point:   Wind: 16mph
Humidity: 52%   Direction: 180°S
Pressure: 30.12"   Gusts: NA
Location:  32.7353°N, 94.9492°W
Report Text: KGGG 282153Z 18014KT 10SM CLR 19/09 A3012 RMK AO2 SLP201 T01890089
Loading
Personal Weather Stations






























Interactive Weather Map New forecast layout! Learn more

10-Day Weather Forecast

Advertisements
Track Severe Weather on mobile